Terminal Aerodrome Forecast
Issued by NWS Charleston, SC

Home | Current Version | Previous Version | Text Only | Print | Product List | Glossary On
Versions: 1 2 3 4 5 6 7 8 9 10 11 12 13 14 15 16 17 18 19 20
000
FTUS42 KCHS 032336
TAFSAV
TAF
KSAV 032336Z 0400/0424 15005KT P6SM SCT040 BKN150
     FM040900 31003KT P6SM FEW025 SCT200
     FM041800 10007KT P6SM BKN060=

USA.gov is the U.S. government's official web portal to all federal, state and local government web resources and services.